sensor_id;sensor_type;location;lat;lon;timestamp;pressure;altitude;pressure_sealevel;temperature;humidity
48424;BME280;34232;42.502;26.014;2022-11-25T00:01:24;99628.31;;;10.62;53.47
48424;BME280;34232;42.502;26.014;2022-11-25T00:03:52;99625.56;;;10.63;53.32
48424;BME280;34232;42.502;26.014;2022-11-25T00:06:21;99634.13;;;10.56;53.39
48424;BME280;34232;42.502;26.014;2022-11-25T00:08:59;99634.13;;;10.56;53.89
48424;BME280;34232;42.502;26.014;2022-11-25T00:11:25;99635.53;;;10.60;53.71
48424;BME280;34232;42.502;26.014;2022-11-25T00:13:51;99638.28;;;10.58;53.40
48424;BME280;34232;42.502;26.014;2022-11-25T00:16:19;99646.06;;;10.60;53.01
48424;BME280;34232;42.502;26.014;2022-11-25T00:18:46;99625.56;;;10.54;53.11
48424;BME280;34232;42.502;26.014;2022-11-25T00:21:15;99645.47;;;10.46;52.87
48424;BME280;34232;42.502;26.014;2022-11-25T00:23:41;99651.03;;;10.53;53.56
48424;BME280;34232;42.502;26.014;2022-11-25T00:26:15;99653.81;;;10.51;52.92
48424;BME280;34232;42.502;26.014;2022-11-25T00:28:43;99636.63;;;10.47;53.21
48424;BME280;34232;42.502;26.014;2022-11-25T00:31:14;99650.22;;;10.52;53.12
48424;BME280;34232;42.502;26.014;2022-11-25T00:33:40;99662.69;;;10.50;53.31
48424;BME280;34232;42.502;26.014;2022-11-25T00:36:14;99651.19;;;10.51;53.67
48424;BME280;34232;42.502;26.014;2022-11-25T00:38:40;99654.78;;;10.50;52.96
48424;BME280;34232;42.502;26.014;2022-11-25T00:41:06;99663.78;;;10.48;52.62
48424;BME280;34232;42.502;26.014;2022-11-25T00:43:49;99654.59;;;10.42;52.97
48424;BME280;34232;42.502;26.014;2022-11-25T00:46:33;99653.66;;;10.43;53.32
48424;BME280;34232;42.502;26.014;2022-11-25T00:48:59;99651.56;;;10.37;52.86
48424;BME280;34232;42.502;26.014;2022-11-25T00:51:27;99653.50;;;10.35;53.17
48424;BME280;34232;42.502;26.014;2022-11-25T00:53:53;99652.94;;;10.41;52.70
48424;BME280;34232;42.502;26.014;2022-11-25T00:56:18;99642.84;;;10.46;53.05
48424;BME280;34232;42.502;26.014;2022-11-25T00:58:44;99649.59;;;10.39;52.82
48424;BME280;34232;42.502;26.014;2022-11-25T01:01:11;99647.28;;;10.36;53.97
48424;BME280;34232;42.502;26.014;2022-11-25T01:03:37;99627.16;;;10.26;53.57
48424;BME280;34232;42.502;26.014;2022-11-25T01:06:05;99644.88;;;10.24;54.15
48424;BME280;34232;42.502;26.014;2022-11-25T01:08:32;99655.38;;;10.24;53.91
48424;BME280;34232;42.502;26.014;2022-11-25T01:11:03;99642.22;;;10.24;54.20
48424;BME280;34232;42.502;26.014;2022-11-25T01:13:30;99650.13;;;10.24;54.00
48424;BME280;34232;42.502;26.014;2022-11-25T01:15:56;99639.28;;;10.17;54.00
48424;BME280;34232;42.502;26.014;2022-11-25T01:18:21;99659.81;;;10.23;53.84
48424;BME280;34232;42.502;26.014;2022-11-25T01:20:47;99654.56;;;10.23;53.95
48424;BME280;34232;42.502;26.014;2022-11-25T01:23:13;99659.56;;;10.26;54.07
48424;BME280;34232;42.502;26.014;2022-11-25T01:25:39;99646.84;;;10.31;53.83
48424;BME280;34232;42.502;26.014;2022-11-25T01:28:05;99651.84;;;10.34;53.83
48424;BME280;34232;42.502;26.014;2022-11-25T01:30:30;99649.78;;;10.38;53.98
48424;BME280;34232;42.502;26.014;2022-11-25T01:32:56;99644.03;;;10.23;54.58
48424;BME280;34232;42.502;26.014;2022-11-25T01:35:21;99649.34;;;10.33;54.18
48424;BME280;34232;42.502;26.014;2022-11-25T01:37:47;99649.59;;;10.39;54.03
48424;BME280;34232;42.502;26.014;2022-11-25T01:40:12;99646.84;;;10.31;54.32
48424;BME280;34232;42.502;26.014;2022-11-25T01:42:45;99650.44;;;10.30;53.89
48424;BME280;34232;42.502;26.014;2022-11-25T01:47:53;99649.59;;;10.30;53.50
48424;BME280;34232;42.502;26.014;2022-11-25T01:50:22;99629.88;;;10.14;53.65
48424;BME280;34232;42.502;26.014;2022-11-25T01:52:51;99652.63;;;10.25;53.27
48424;BME280;34232;42.502;26.014;2022-11-25T01:55:23;99656.91;;;10.26;52.96
48424;BME280;34232;42.502;26.014;2022-11-25T01:57:54;99652.63;;;10.25;52.92
48424;BME280;34232;42.502;26.014;2022-11-25T02:00:21;99655.25;;;10.25;53.23
48424;BME280;34232;42.502;26.014;2022-11-25T02:02:49;99665.50;;;10.28;53.45
48424;BME280;34232;42.502;26.014;2022-11-25T02:05:20;99662.44;;;10.23;53.13
48424;BME280;34232;42.502;26.014;2022-11-25T02:07:47;99653.94;;;10.10;53.42
48424;BME280;34232;42.502;26.014;2022-11-25T02:10:17;99668.34;;;10.15;53.15
48424;BME280;34232;42.502;26.014;2022-11-25T02:12:45;99671.59;;;10.19;53.09
48424;BME280;34232;42.502;26.014;2022-11-25T02:15:12;99677.25;;;10.24;52.73
48424;BME280;34232;42.502;26.014;2022-11-25T02:17:37;99666.06;;;10.22;52.90
48424;BME280;34232;42.502;26.014;2022-11-25T02:27:42;99672.63;;;10.37;52.64
48424;BME280;34232;42.502;26.014;2022-11-25T02:30:08;99673.97;;;10.32;52.93
48424;BME280;34232;42.502;26.014;2022-11-25T02:32:34;99677.00;;;10.27;52.72
48424;BME280;34232;42.502;26.014;2022-11-25T02:34:59;99677.00;;;10.27;52.84
48424;BME280;34232;42.502;26.014;2022-11-25T02:37:25;99680.06;;;10.32;52.70
48424;BME280;34232;42.502;26.014;2022-11-25T02:39:52;99690.59;;;10.32;52.74
48424;BME280;34232;42.502;26.014;2022-11-25T02:42:17;99682.00;;;10.30;52.79
48424;BME280;34232;42.502;26.014;2022-11-25T02:44:47;99682.34;;;10.16;53.48
48424;BME280;34232;42.502;26.014;2022-11-25T02:47:12;99680.22;;;10.10;53.63
48424;BME280;34232;42.502;26.014;2022-11-25T02:49:38;99679.84;;;10.14;53.08
48424;BME280;34232;42.502;26.014;2022-11-25T02:52:03;99680.94;;;10.12;53.70
48424;BME280;34232;42.502;26.014;2022-11-25T02:54:29;99660.69;;;10.03;53.70
48424;BME280;34232;42.502;26.014;2022-11-25T02:56:54;99679.09;;;10.03;53.75
48424;BME280;34232;42.502;26.014;2022-11-25T02:59:19;99674.09;;;10.00;54.33
48424;BME280;34232;42.502;26.014;2022-11-25T03:01:45;99677.84;;;10.07;54.79
48424;BME280;34232;42.502;26.014;2022-11-25T03:04:11;99681.47;;;10.06;54.01
48424;BME280;34232;42.502;26.014;2022-11-25T03:06:36;99675.50;;;10.04;53.94
48424;BME280;34232;42.502;26.014;2022-11-25T03:09:02;99668.59;;;10.03;53.95
48424;BME280;34232;42.502;26.014;2022-11-25T03:11:27;99675.50;;;10.04;54.15
48424;BME280;34232;42.502;26.014;2022-11-25T03:14:11;99678.28;;;10.02;53.92
48424;BME280;34232;42.502;26.014;2022-11-25T03:16:36;99679.97;;;10.13;53.76
48424;BME280;34232;42.502;26.014;2022-11-25T03:19:02;99671.34;;;10.01;53.95
48424;BME280;34232;42.502;26.014;2022-11-25T03:21:28;99687.47;;;10.17;54.37
48424;BME280;34232;42.502;26.014;2022-11-25T03:23:53;99690.34;;;10.14;54.93
48424;BME280;34232;42.502;26.014;2022-11-25T03:26:19;99689.88;;;10.00;54.89
48424;BME280;34232;42.502;26.014;2022-11-25T03:28:44;99683.66;;;10.01;55.49
48424;BME280;34232;42.502;26.014;2022-11-25T03:31:10;99684.38;;;10.03;55.83
48424;BME280;34232;42.502;26.014;2022-11-25T03:33:36;99700.16;;;10.03;54.81
48424;BME280;34232;42.502;26.014;2022-11-25T03:36:01;99686.53;;;9.88;54.28
48424;BME280;34232;42.502;26.014;2022-11-25T03:38:26;99690.94;;;9.88;54.33
48424;BME280;34232;42.502;26.014;2022-11-25T03:40:52;99699.44;;;10.01;54.37
48424;BME280;34232;42.502;26.014;2022-11-25T03:43:17;99691.81;;;9.98;54.40
48424;BME280;34232;42.502;26.014;2022-11-25T03:45:43;99687.00;;;10.03;54.18
48424;BME280;34232;42.502;26.014;2022-11-25T03:48:08;99698.22;;;10.05;54.31
48424;BME280;34232;42.502;26.014;2022-11-25T03:50:33;99694.47;;;10.07;54.14
48424;BME280;34232;42.502;26.014;2022-11-25T03:52:59;99682.69;;;10.02;54.35
48424;BME280;34232;42.502;26.014;2022-11-25T03:55:24;99698.91;;;10.07;54.62
48424;BME280;34232;42.502;26.014;2022-11-25T03:57:50;99687.41;;;10.08;54.57
48424;BME280;34232;42.502;26.014;2022-11-25T04:00:15;99706.13;;;10.14;54.79
48424;BME280;34232;42.502;26.014;2022-11-25T04:02:41;99708.19;;;10.11;54.75
48424;BME280;34232;42.502;26.014;2022-11-25T04:05:06;99711.78;;;10.10;54.79
48424;BME280;34232;42.502;26.014;2022-11-25T04:07:32;99700.56;;;10.08;55.57
48424;BME280;34232;42.502;26.014;2022-11-25T04:09:57;99701.69;;;10.05;56.00
48424;BME280;34232;42.502;26.014;2022-11-25T04:12:22;99709.84;;;10.02;55.62
48424;BME280;34232;42.502;26.014;2022-11-25T04:17:38;99711.69;;;9.91;55.83
48424;BME280;34232;42.502;26.014;2022-11-25T04:20:04;99715.03;;;9.93;55.96
48424;BME280;34232;42.502;26.014;2022-11-25T04:22:30;99708.09;;;9.92;55.83
48424;BME280;34232;42.502;26.014;2022-11-25T04:24:55;99705.66;;;10.00;55.75
48424;BME280;34232;42.502;26.014;2022-11-25T04:27:20;99722.84;;;10.04;55.54
48424;BME280;34232;42.502;26.014;2022-11-25T04:29:46;99721.94;;;9.94;55.57
48424;BME280;34232;42.502;26.014;2022-11-25T04:32:11;99718.69;;;10.01;55.67
48424;BME280;34232;42.502;26.014;2022-11-25T04:34:37;99720.94;;;10.06;56.04
48424;BME280;34232;42.502;26.014;2022-11-25T04:37:02;99725.06;;;10.08;55.78
48424;BME280;34232;42.502;26.014;2022-11-25T04:39:28;99727.81;;;10.07;54.79
48424;BME280;34232;42.502;26.014;2022-11-25T04:41:53;99716.19;;;10.00;55.55
48424;BME280;34232;42.502;26.014;2022-11-25T04:44:38;99739.97;;;9.98;56.02
48424;BME280;34232;42.502;26.014;2022-11-25T04:47:04;99728.63;;;9.98;55.94
48424;BME280;34232;42.502;26.014;2022-11-25T04:49:29;99732.41;;;10.05;55.09
48424;BME280;34232;42.502;26.014;2022-11-25T04:51:54;99730.03;;;10.02;55.45
48424;BME280;34232;42.502;26.014;2022-11-25T04:54:20;99742.47;;;10.00;55.38
48424;BME280;34232;42.502;26.014;2022-11-25T04:56:45;99741.69;;;10.09;55.22
48424;BME280;34232;42.502;26.014;2022-11-25T04:59:11;99747.13;;;10.17;55.02
48424;BME280;34232;42.502;26.014;2022-11-25T05:01:54;99751.44;;;10.18;55.11
48424;BME280;34232;42.502;26.014;2022-11-25T05:04:20;99752.41;;;10.17;55.51
48424;BME280;34232;42.502;26.014;2022-11-25T05:06:45;99750.53;;;10.08;54.57
48424;BME280;34232;42.502;26.014;2022-11-25T05:09:11;99757.19;;;10.12;55.34
48424;BME280;34232;42.502;26.014;2022-11-25T05:11:36;99763.03;;;10.15;54.98
48424;BME280;34232;42.502;26.014;2022-11-25T05:14:01;99761.50;;;10.13;54.08
48424;BME280;34232;42.502;26.014;2022-11-25T05:16:27;99762.81;;;10.19;54.77
48424;BME280;34232;42.502;26.014;2022-11-25T05:18:54;99771.00;;;10.25;54.74
48424;BME280;34232;42.502;26.014;2022-11-25T05:21:20;99774.75;;;10.23;55.32
48424;BME280;34232;42.502;26.014;2022-11-25T05:23:45;99780.16;;;10.21;55.50
48424;BME280;34232;42.502;26.014;2022-11-25T05:26:11;99783.63;;;10.31;55.11
48424;BME280;34232;42.502;26.014;2022-11-25T05:28:36;99784.09;;;10.36;55.48
48424;BME280;34232;42.502;26.014;2022-11-25T05:31:01;99785.09;;;10.45;55.65
48424;BME280;34232;42.502;26.014;2022-11-25T05:33:27;99797.59;;;10.52;55.88
48424;BME280;34232;42.502;26.014;2022-11-25T05:35:57;99804.25;;;10.57;55.89
48424;BME280;34232;42.502;26.014;2022-11-25T05:38:23;99801.09;;;10.63;56.36
48424;BME280;34232;42.502;26.014;2022-11-25T05:40:48;99796.22;;;10.58;56.50
48424;BME280;34232;42.502;26.014;2022-11-25T05:43:14;99807.06;;;10.65;55.34
48424;BME280;34232;42.502;26.014;2022-11-25T05:45:39;99816.06;;;10.72;54.03
48424;BME280;34232;42.502;26.014;2022-11-25T05:48:05;99817.47;;;10.76;54.60
48424;BME280;34232;42.502;26.014;2022-11-25T05:50:30;99820.69;;;10.79;54.20
48424;BME280;34232;42.502;26.014;2022-11-25T05:52:55;99824.03;;;10.81;53.58
48424;BME280;34232;42.502;26.014;2022-11-25T05:55:23;99830.13;;;10.82;52.83
48424;BME280;34232;42.502;26.014;2022-11-25T05:57:48;99838.03;;;10.82;53.38
48424;BME280;34232;42.502;26.014;2022-11-25T06:00:14;99826.59;;;10.72;53.04
48424;BME280;34232;42.502;26.014;2022-11-25T06:02:39;99836.47;;;10.70;53.48
48424;BME280;34232;42.502;26.014;2022-11-25T06:05:05;99847.53;;;10.73;53.69
48424;BME280;34232;42.502;26.014;2022-11-25T06:07:31;99850.28;;;10.72;53.43
48424;BME280;34232;42.502;26.014;2022-11-25T06:09:56;99860.69;;;10.73;53.06
48424;BME280;34232;42.502;26.014;2022-11-25T06:12:21;99856.09;;;10.66;52.93
48424;BME280;34232;42.502;26.014;2022-11-25T06:14:47;99862.84;;;10.59;53.08
48424;BME280;34232;42.502;26.014;2022-11-25T06:17:12;99863.31;;;10.64;52.97
48424;BME280;34232;42.502;26.014;2022-11-25T06:19:38;99860.75;;;10.52;53.43
48424;BME280;34232;42.502;26.014;2022-11-25T06:22:03;99857.59;;;10.59;53.25
48424;BME280;34232;42.502;26.014;2022-11-25T06:24:29;99874.66;;;10.64;53.23
48424;BME280;34232;42.502;26.014;2022-11-25T06:26:54;99877.69;;;10.60;54.04
48424;BME280;34232;42.502;26.014;2022-11-25T06:29:20;99862.16;;;10.57;53.28
48424;BME280;34232;42.502;26.014;2022-11-25T06:31:48;99882.94;;;10.60;54.10
48424;BME280;34232;42.502;26.014;2022-11-25T06:34:16;99881.28;;;10.59;53.66
48424;BME280;34232;42.502;26.014;2022-11-25T06:36:41;99871.16;;;10.54;54.11
48424;BME280;34232;42.502;26.014;2022-11-25T06:39:07;99869.03;;;10.48;53.94
48424;BME280;34232;42.502;26.014;2022-11-25T06:41:33;99877.06;;;10.46;53.89
48424;BME280;34232;42.502;26.014;2022-11-25T06:43:58;99891.19;;;10.45;54.29
48424;BME280;34232;42.502;26.014;2022-11-25T06:46:24;99891.06;;;10.47;53.97
48424;BME280;34232;42.502;26.014;2022-11-25T06:48:49;99894.19;;;10.41;54.80
48424;BME280;34232;42.502;26.014;2022-11-25T06:51:15;99882.91;;;10.29;54.72
48424;BME280;34232;42.502;26.014;2022-11-25T06:53:41;99904.41;;;10.34;54.09
48424;BME280;34232;42.502;26.014;2022-11-25T06:56:09;99904.66;;;10.31;54.79
48424;BME280;34232;42.502;26.014;2022-11-25T06:58:36;99903.97;;;10.29;54.72
48424;BME280;34232;42.502;26.014;2022-11-25T07:01:25;99915.19;;;10.31;53.73
48424;BME280;34232;42.502;26.014;2022-11-25T07:03:57;99907.78;;;10.25;53.12
48424;BME280;34232;42.502;26.014;2022-11-25T07:06:23;99926.56;;;10.32;53.19
48424;BME280;34232;42.502;26.014;2022-11-25T07:08:49;99930.00;;;10.32;53.51
48424;BME280;34232;42.502;26.014;2022-11-25T07:11:25;99936.25;;;10.31;54.39
48424;BME280;34232;42.502;26.014;2022-11-25T07:13:52;99941.50;;;10.31;54.60
48424;BME280;34232;42.502;26.014;2022-11-25T07:16:18;99936.63;;;10.27;54.21
48424;BME280;34232;42.502;26.014;2022-11-25T07:18:44;99943.41;;;10.29;54.10
48424;BME280;34232;42.502;26.014;2022-11-25T07:21:11;99945.22;;;10.29;55.06
48424;BME280;34232;42.502;26.014;2022-11-25T07:23:37;99949.63;;;10.28;54.42
48424;BME280;34232;42.502;26.014;2022-11-25T07:26:08;99947.94;;;10.38;54.63
48424;BME280;34232;42.502;26.014;2022-11-25T07:28:35;99948.38;;;10.43;54.54
48424;BME280;34232;42.502;26.014;2022-11-25T07:33:33;99960.31;;;10.47;54.23
48424;BME280;34232;42.502;26.014;2022-11-25T07:36:05;99965.13;;;10.42;54.37
48424;BME280;34232;42.502;26.014;2022-11-25T07:38:32;99969.16;;;10.46;54.54
48424;BME280;34232;42.502;26.014;2022-11-25T07:41:13;99976.56;;;10.52;53.67
48424;BME280;34232;42.502;26.014;2022-11-25T07:43:39;99967.03;;;10.40;53.40
48424;BME280;34232;42.502;26.014;2022-11-25T07:46:19;99979.50;;;10.38;54.00
48424;BME280;34232;42.502;26.014;2022-11-25T07:48:46;99975.41;;;10.45;55.51
48424;BME280;34232;42.502;26.014;2022-11-25T07:53:42;99992.41;;;10.62;54.53
48424;BME280;34232;42.502;26.014;2022-11-25T07:56:09;99998.25;;;10.66;54.76
48424;BME280;34232;42.502;26.014;2022-11-25T07:58:34;99994.41;;;10.70;54.58
48424;BME280;34232;42.502;26.014;2022-11-25T08:01:04;100002.50;;;10.78;53.81
48424;BME280;34232;42.502;26.014;2022-11-25T08:03:34;99998.91;;;10.79;53.95
48424;BME280;34232;42.502;26.014;2022-11-25T08:06:08;100002.25;;;10.81;53.50
48424;BME280;34232;42.502;26.014;2022-11-25T08:08:34;99981.19;;;10.81;53.73
48424;BME280;34232;42.502;26.014;2022-11-25T08:11:00;100003.31;;;10.78;53.49
48424;BME280;34232;42.502;26.014;2022-11-25T08:13:29;100005.75;;;10.91;53.25
48424;BME280;34232;42.502;26.014;2022-11-25T08:15:58;100017.19;;;11.01;52.91
48424;BME280;34232;42.502;26.014;2022-11-25T08:18:23;100017.00;;;10.93;52.68
48424;BME280;34232;42.502;26.014;2022-11-25T08:20:48;100013.16;;;10.97;52.26
48424;BME280;34232;42.502;26.014;2022-11-25T08:23:14;100005.13;;;10.99;52.75
48424;BME280;34232;42.502;26.014;2022-11-25T08:25:40;100014.03;;;11.07;53.22
48424;BME280;34232;42.502;26.014;2022-11-25T08:28:08;100021.34;;;11.25;53.20
48424;BME280;34232;42.502;26.014;2022-11-25T08:30:34;100009.94;;;11.24;52.84
48424;BME280;34232;42.502;26.014;2022-11-25T08:33:00;100021.53;;;11.33;51.94
48424;BME280;34232;42.502;26.014;2022-11-25T08:35:26;100022.91;;;11.37;52.06
48424;BME280;34232;42.502;26.014;2022-11-25T08:37:51;100022.13;;;11.46;51.39
48424;BME280;34232;42.502;26.014;2022-11-25T08:40:20;100016.50;;;11.60;52.21
48424;BME280;34232;42.502;26.014;2022-11-25T08:42:45;100014.81;;;11.59;51.25
48424;BME280;34232;42.502;26.014;2022-11-25T08:45:10;100019.31;;;11.68;52.33
48424;BME280;34232;42.502;26.014;2022-11-25T08:47:37;100019.31;;;11.68;50.36
48424;BME280;34232;42.502;26.014;2022-11-25T08:50:06;100017.06;;;11.73;50.97
48424;BME280;34232;42.502;26.014;2022-11-25T08:52:31;100015.75;;;11.79;51.47
48424;BME280;34232;42.502;26.014;2022-11-25T08:54:57;100022.97;;;11.86;51.13
48424;BME280;34232;42.502;26.014;2022-11-25T08:57:22;100015.50;;;11.91;51.29
48424;BME280;34232;42.502;26.014;2022-11-25T08:59:48;100006.06;;;11.99;50.73
48424;BME280;34232;42.502;26.014;2022-11-25T09:02:17;100010.78;;;12.05;50.57
48424;BME280;34232;42.502;26.014;2022-11-25T09:04:43;100023.03;;;12.25;50.61
48424;BME280;34232;42.502;26.014;2022-11-25T09:07:09;100025.44;;;12.47;49.16
48424;BME280;34232;42.502;26.014;2022-11-25T09:09:34;100026.22;;;12.77;49.47
48424;BME280;34232;42.502;26.014;2022-11-25T09:11:59;100014.09;;;12.84;49.35
48424;BME280;34232;42.502;26.014;2022-11-25T09:14:25;100037.06;;;12.93;48.40
48424;BME280;34232;42.502;26.014;2022-11-25T09:16:50;100038.03;;;12.92;48.33
48424;BME280;34232;42.502;26.014;2022-11-25T09:19:16;100044.13;;;12.83;47.51
48424;BME280;34232;42.502;26.014;2022-11-25T09:21:44;100031.38;;;12.69;48.02
48424;BME280;34232;42.502;26.014;2022-11-25T09:24:09;100033.88;;;12.70;48.49
48424;BME280;34232;42.502;26.014;2022-11-25T09:26:35;100028.34;;;12.64;48.35
48424;BME280;34232;42.502;26.014;2022-11-25T09:29:04;100034.97;;;12.68;48.59
48424;BME280;34232;42.502;26.014;2022-11-25T09:31:29;100030.81;;;12.55;48.19
48424;BME280;34232;42.502;26.014;2022-11-25T09:33:55;100029.72;;;12.48;48.76
48424;BME280;34232;42.502;26.014;2022-11-25T09:36:20;100031.53;;;12.38;48.66
48424;BME280;34232;42.502;26.014;2022-11-25T09:38:48;100035.81;;;12.39;48.95
48424;BME280;34232;42.502;26.014;2022-11-25T09:47:32;100043.03;;;12.18;49.12
48424;BME280;34232;42.502;26.014;2022-11-25T09:55:44;100035.28;;;12.26;48.84
48424;BME280;34232;42.502;26.014;2022-11-25T10:00:53;100040.56;;;12.55;48.54
48424;BME280;34232;42.502;26.014;2022-11-25T10:08:23;100050.22;;;13.22;47.18
48424;BME280;34232;42.502;26.014;2022-11-25T10:11:01;100045.78;;;13.22;46.46
48424;BME280;34232;42.502;26.014;2022-11-25T10:13:45;100032.13;;;13.27;46.41
48424;BME280;34232;42.502;26.014;2022-11-25T10:16:26;100043.56;;;13.18;46.11
48424;BME280;34232;42.502;26.014;2022-11-25T10:21:43;100053.03;;;13.01;46.11
48424;BME280;34232;42.502;26.014;2022-11-25T10:24:13;100062.78;;;12.91;46.16
48424;BME280;34232;42.502;26.014;2022-11-25T10:26:41;100053.06;;;12.72;46.71
48424;BME280;34232;42.502;26.014;2022-11-25T10:29:21;100057.78;;;12.78;47.06
48424;BME280;34232;42.502;26.014;2022-11-25T10:31:50;100051.41;;;12.81;47.22
48424;BME280;34232;42.502;26.014;2022-11-25T10:34:35;100046.66;;;12.75;46.10
48424;BME280;34232;42.502;26.014;2022-11-25T10:37:05;100051.41;;;12.81;47.64
48424;BME280;34232;42.502;26.014;2022-11-25T10:39:35;100049.88;;;12.78;46.26
48424;BME280;34232;42.502;26.014;2022-11-25T10:42:14;100050.00;;;12.96;46.78
48424;BME280;34232;42.502;26.014;2022-11-25T10:44:42;100043.59;;;12.99;47.09
48424;BME280;34232;42.502;26.014;2022-11-25T10:52:29;100031.09;;;12.72;47.61
48424;BME280;34232;42.502;26.014;2022-11-25T10:54:57;100052.63;;;12.67;47.29
48424;BME280;34232;42.502;26.014;2022-11-25T10:57:31;100050.00;;;12.67;46.67
48424;BME280;34232;42.502;26.014;2022-11-25T10:59:59;100046.97;;;12.62;46.52
48424;BME280;34232;42.502;26.014;2022-11-25T11:02:30;100044.75;;;12.48;46.56
48424;BME280;34232;42.502;26.014;2022-11-25T11:05:02;100042.94;;;12.48;46.45
48424;BME280;34232;42.502;26.014;2022-11-25T11:07:31;100033.03;;;12.50;47.41
48424;BME280;34232;42.502;26.014;2022-11-25T11:10:22;100041.66;;;12.72;47.54
48424;BME280;34232;42.502;26.014;2022-11-25T11:12:58;100041.66;;;12.91;46.77
48424;BME280;34232;42.502;26.014;2022-11-25T11:15:30;100050.78;;;13.06;45.91
48424;BME280;34232;42.502;26.014;2022-11-25T11:17:59;100041.47;;;13.12;45.33
48424;BME280;34232;42.502;26.014;2022-11-25T11:20:27;100043.84;;;13.24;45.29
48424;BME280;34232;42.502;26.014;2022-11-25T11:25:29;100051.00;;;13.42;44.69
48424;BME280;34232;42.502;26.014;2022-11-25T11:27:56;100045.13;;;13.48;44.06
48424;BME280;34232;42.502;26.014;2022-11-25T11:30:25;100049.06;;;13.44;44.14
48424;BME280;34232;42.502;26.014;2022-11-25T11:33:00;100040.84;;;13.37;45.10
48424;BME280;34232;42.502;26.014;2022-11-25T11:35:34;100060.19;;;13.38;44.19
48424;BME280;34232;42.502;26.014;2022-11-25T11:38:26;100036.84;;;13.33;44.17
48424;BME280;34232;42.502;26.014;2022-11-25T11:49:08;100052.84;;;13.69;43.42
48424;BME280;34232;42.502;26.014;2022-11-25T11:52:04;100053.38;;;13.72;43.63
48424;BME280;34232;42.502;26.014;2022-11-25T11:54:35;100052.00;;;13.68;43.05
48424;BME280;34232;42.502;26.014;2022-11-25T11:57:26;100043.25;;;13.68;43.45
48424;BME280;34232;42.502;26.014;2022-11-25T12:00:02;100051.38;;;13.56;43.25
48424;BME280;34232;42.502;26.014;2022-11-25T12:05:32;100046.22;;;13.55;43.28
48424;BME280;34232;42.502;26.014;2022-11-25T12:08:15;100055.97;;;13.54;43.84
48424;BME280;34232;42.502;26.014;2022-11-25T12:10:59;100052.78;;;13.51;43.39
48424;BME280;34232;42.502;26.014;2022-11-25T12:16:04;100065.03;;;13.52;42.59
48424;BME280;34232;42.502;26.014;2022-11-25T12:24:16;100064.03;;;13.53;42.38
48424;BME280;34232;42.502;26.014;2022-11-25T12:26:56;100076.84;;;13.48;42.23
48424;BME280;34232;42.502;26.014;2022-11-25T12:34:55;100072.72;;;13.36;42.51
48424;BME280;34232;42.502;26.014;2022-11-25T12:43:45;100078.59;;;13.29;43.14
48424;BME280;34232;42.502;26.014;2022-11-25T12:48:56;100083.06;;;13.19;42.83
48424;BME280;34232;42.502;26.014;2022-11-25T13:08:07;100091.81;;;13.01;42.15
48424;BME280;34232;42.502;26.014;2022-11-25T13:16:07;100088.78;;;12.95;43.08
48424;BME280;34232;42.502;26.014;2022-11-25T13:18:37;100088.22;;;12.92;42.60
48424;BME280;34232;42.502;26.014;2022-11-25T13:21:14;100094.78;;;12.98;43.21
48424;BME280;34232;42.502;26.014;2022-11-25T13:23:53;100090.84;;;13.02;43.23
48424;BME280;34232;42.502;26.014;2022-11-25T13:29:00;100098.63;;;13.03;43.21
48424;BME280;34232;42.502;26.014;2022-11-25T13:31:55;100114.78;;;13.10;41.36
48424;BME280;34232;42.502;26.014;2022-11-25T13:34:32;100122.56;;;13.11;42.31
48424;BME280;34232;42.502;26.014;2022-11-25T13:37:00;100114.50;;;13.03;41.97
48424;BME280;34232;42.502;26.014;2022-11-25T13:39:33;100121.19;;;13.07;42.33
48424;BME280;34232;42.502;26.014;2022-11-25T13:42:12;100120.06;;;13.10;42.21
48424;BME280;34232;42.502;26.014;2022-11-25T13:44:51;100120.75;;;13.12;42.79
48424;BME280;34232;42.502;26.014;2022-11-25T13:47:31;100121.72;;;13.01;42.75
48424;BME280;34232;42.502;26.014;2022-11-25T13:50:25;100119.91;;;13.02;43.43
48424;BME280;34232;42.502;26.014;2022-11-25T13:53:05;100128.28;;;12.87;43.20
48424;BME280;34232;42.502;26.014;2022-11-25T13:55:34;100121.44;;;12.85;43.12
48424;BME280;34232;42.502;26.014;2022-11-25T14:08:44;100151.78;;;12.81;43.50
48424;BME280;34232;42.502;26.014;2022-11-25T14:13:55;100150.53;;;12.66;44.22
48424;BME280;34232;42.502;26.014;2022-11-25T14:27:37;100155.72;;;12.27;45.03
48424;BME280;34232;42.502;26.014;2022-11-25T14:30:08;100155.00;;;12.25;44.92
48424;BME280;34232;42.502;26.014;2022-11-25T14:32:56;100152.81;;;12.30;45.25
48424;BME280;34232;42.502;26.014;2022-11-25T14:35:34;100163.38;;;12.30;45.34
48424;BME280;34232;42.502;26.014;2022-11-25T14:38:18;100163.63;;;12.27;45.58
48424;BME280;34232;42.502;26.014;2022-11-25T14:44:17;100173.59;;;12.14;45.13
48424;BME280;34232;42.502;26.014;2022-11-25T14:46:53;100166.72;;;12.02;44.12
48424;BME280;34232;42.502;26.014;2022-11-25T14:49:20;100156.00;;;11.94;44.81
48424;BME280;34232;42.502;26.014;2022-11-25T14:51:47;100179.31;;;11.88;44.94
48424;BME280;34232;42.502;26.014;2022-11-25T14:54:16;100168.59;;;11.80;45.34
48424;BME280;34232;42.502;26.014;2022-11-25T14:56:41;100186.69;;;11.74;45.27
48424;BME280;34232;42.502;26.014;2022-11-25T14:59:08;100177.56;;;11.57;45.95
48424;BME280;34232;42.502;26.014;2022-11-25T15:01:36;100178.03;;;11.62;45.95
48424;BME280;34232;42.502;26.014;2022-11-25T15:06:40;100157.69;;;11.53;46.42
48424;BME280;34232;42.502;26.014;2022-11-25T15:11:58;100170.72;;;11.45;46.60
48424;BME280;34232;42.502;26.014;2022-11-25T15:14:30;100165.63;;;11.53;46.96